Time;durP1;ratioP1;P1;durP2;ratioP2;P2;SDS_P1;SDS_P2;PMS_P1;PMS_P2;Temp;Humidity;BMP_temperature;BMP_pressure;BME280_temperature;BME280_humidity;BME280_pressure;Samples;Min_cycle;Max_cycle;Signal;HPM_P1;HPM_P2
2021/03/23 00:01:04;;;;;;;3.67;2.07;;;8.70;40.80;;;;;;5050931;28;20060;-68
2021/03/23 00:03:39;;;;;;;3.97;1.93;;;8.70;41.10;;;;;;5049611;28;20025;-68
2021/03/23 00:06:06;;;;;;;3.73;1.80;;;8.70;41.40;;;;;;5050669;28;20166;-70
2021/03/23 00:08:50;;;;;;;3.93;2.00;;;8.70;41.80;;;;;;5050721;28;20347;-68
2021/03/23 00:11:21;;;;;;;3.57;1.87;;;8.60;41.90;;;;;;5050852;28;20044;-69
2021/03/23 00:13:48;;;;;;;4.53;2.00;;;8.60;41.70;;;;;;5050321;28;20393;-68
2021/03/23 00:16:16;;;;;;;4.43;2.40;;;8.60;41.80;;;;;;5050477;28;20032;-68
2021/03/23 00:18:42;;;;;;;3.70;2.00;;;8.60;42.10;;;;;;5051035;28;20025;-69
2021/03/23 00:21:09;;;;;;;7.63;2.90;;;8.50;42.60;;;;;;5050813;28;20054;-69
2021/03/23 00:23:35;;;;;;;5.10;2.30;;;8.60;42.20;;;;;;5050684;28;20056;-69
2021/03/23 00:26:01;;;;;;;4.63;1.60;;;8.60;42.30;;;;;;5050470;28;20465;-68
2021/03/23 00:28:26;;;;;;;4.77;1.90;;;8.70;42.30;;;;;;5050457;28;20083;-69
2021/03/23 00:30:53;;;;;;;4.77;2.30;;;8.60;42.60;;;;;;5050458;28;20029;-68
2021/03/23 00:33:19;;;;;;;3.03;1.80;;;8.60;42.80;;;;;;5050469;28;20036;-69
2021/03/23 00:35:45;;;;;;;5.03;2.13;;;8.50;42.90;;;;;;5054146;28;20013;-68
2021/03/23 00:38:11;;;;;;;3.90;2.10;;;8.50;43.20;;;;;;5054100;28;20055;-68
2021/03/23 00:40:38;;;;;;;3.83;2.10;;;8.50;43.40;;;;;;5054067;28;20071;-68
2021/03/23 00:43:09;;;;;;;5.80;2.17;;;8.40;43.50;;;;;;5054203;28;20064;-68
2021/03/23 00:45:40;;;;;;;5.67;1.97;;;8.40;43.70;;;;;;5054018;28;20104;-69
2021/03/23 00:48:08;;;;;;;5.30;2.63;;;8.40;44.00;;;;;;5053995;28;20111;-68
2021/03/23 00:50:34;;;;;;;3.67;2.00;;;8.30;44.10;;;;;;5054072;28;20086;-68
2021/03/23 00:53:00;;;;;;;5.70;2.33;;;8.30;45.10;;;;;;5053986;28;20025;-68
2021/03/23 00:55:25;;;;;;;3.23;2.07;;;8.30;44.70;;;;;;5053820;28;20367;-68
2021/03/23 00:57:51;;;;;;;5.27;2.50;;;8.30;44.70;;;;;;5053714;28;20477;-69
2021/03/23 01:00:18;;;;;;;7.67;2.37;;;8.30;44.80;;;;;;5053960;28;20077;-68
2021/03/23 01:02:44;;;;;;;4.00;2.00;;;8.30;44.80;;;;;;5053856;28;20032;-69
2021/03/23 01:05:12;;;;;;;5.23;2.50;;;8.30;45.00;;;;;;5053958;28;20029;-69
2021/03/23 01:07:37;;;;;;;4.07;2.33;;;8.30;45.00;;;;;;5053555;28;20040;-68
2021/03/23 01:10:05;;;;;;;5.70;2.23;;;8.20;45.00;;;;;;5053381;28;20033;-68
2021/03/23 01:12:30;;;;;;;5.97;2.30;;;8.30;44.90;;;;;;5053800;28;20029;-69
2021/03/23 01:14:56;;;;;;;5.30;2.43;;;8.20;45.10;;;;;;5053635;28;20210;-68
2021/03/23 01:17:22;;;;;;;5.33;1.90;;;8.20;45.20;;;;;;5053531;28;20103;-68
2021/03/23 01:19:47;;;;;;;6.63;2.73;;;8.20;45.30;;;;;;5053439;28;20540;-69
2021/03/23 01:22:13;;;;;;;5.60;2.47;;;8.20;45.70;;;;;;5053591;28;20366;-68
2021/03/23 01:24:39;;;;;;;7.83;2.83;;;8.20;45.60;;;;;;5053861;28;20025;-69
2021/03/23 01:27:05;;;;;;;5.10;2.40;;;8.20;45.70;;;;;;5053329;28;20132;-69
2021/03/23 01:29:31;;;;;;;5.17;2.30;;;8.20;45.80;;;;;;5053320;28;20021;-69
2021/03/23 01:31:58;;;;;;;4.57;2.60;;;8.10;45.90;;;;;;5053235;28;20053;-68
2021/03/23 01:34:24;;;;;;;4.60;2.43;;;8.20;46.20;;;;;;5053203;28;20025;-69
2021/03/23 01:36:49;;;;;;;4.20;2.17;;;8.10;45.90;;;;;;5053263;28;20098;-68
2021/03/23 01:39:15;;;;;;;6.87;2.57;;;8.20;45.80;;;;;;5053518;28;20064;-68
2021/03/23 01:41:41;;;;;;;4.07;2.13;;;8.20;45.80;;;;;;5052816;28;20036;-67
2021/03/23 01:44:07;;;;;;;8.60;2.30;;;8.10;45.80;;;;;;5052726;28;20098;-68
2021/03/23 01:46:44;;;;;;;7.47;2.37;;;8.20;46.00;;;;;;5051840;28;20123;-68
2021/03/23 01:49:33;;;;;;;5.30;2.20;;;8.10;46.30;;;;;;5052627;28;20127;-68
2021/03/23 01:52:03;;;;;;;5.53;2.00;;;8.00;46.40;;;;;;5053094;28;20378;-67
2021/03/23 01:54:33;;;;;;;7.60;2.40;;;8.00;46.80;;;;;;5052931;28;20025;-68
2021/03/23 01:57:06;;;;;;;4.33;2.60;;;8.00;47.10;;;;;;5052571;28;20504;-67
2021/03/23 01:59:35;;;;;;;5.37;2.20;;;8.00;47.30;;;;;;5049341;28;20107;-67
2021/03/23 02:02:02;;;;;;;6.00;2.10;;;7.90;47.40;;;;;;5049949;28;20100;-68
2021/03/23 02:04:28;;;;;;;3.83;2.00;;;7.90;47.70;;;;;;5050792;28;20057;-67
2021/03/23 02:06:54;;;;;;;3.60;2.03;;;7.90;47.70;;;;;;5052318;28;20056;-67
2021/03/23 02:09:24;;;;;;;4.87;2.40;;;7.90;48.20;;;;;;5052290;28;20104;-68
2021/03/23 02:12:04;;;;;;;4.87;2.40;;;7.90;48.60;;;;;;5052377;28;20093;-67
2021/03/23 02:14:33;;;;;;;3.80;2.30;;;7.90;48.00;;;;;;5052102;28;20037;-67
2021/03/23 02:17:18;;;;;;;4.60;2.20;;;7.90;48.10;;;;;;5052061;28;20041;-67
2021/03/23 02:19:44;;;;;;;4.73;2.47;;;7.90;48.40;;;;;;5051775;28;20529;-67
2021/03/23 02:22:19;;;;;;;4.20;2.20;;;7.90;48.30;;;;;;5052023;28;20031;-67
2021/03/23 02:24:45;;;;;;;4.97;2.30;;;7.80;48.50;;;;;;5052221;28;20116;-67
2021/03/23 02:27:11;;;;;;;4.77;2.23;;;7.80;49.00;;;;;;5052193;28;20544;-67
2021/03/23 02:29:36;;;;;;;4.03;2.07;;;7.80;48.60;;;;;;5051795;28;20389;-67
2021/03/23 02:32:02;;;;;;;6.90;2.80;;;7.80;49.30;;;;;;5051824;28;20473;-67
2021/03/23 02:34:28;;;;;;;4.07;2.30;;;7.70;48.90;;;;;;5052045;28;20428;-68
2021/03/23 02:36:54;;;;;;;4.47;2.30;;;7.70;49.00;;;;;;5051509;28;20037;-67
2021/03/23 02:39:29;;;;;;;4.17;2.23;;;7.70;49.00;;;;;;5051961;28;20059;-67
2021/03/23 02:41:56;;;;;;;4.07;2.10;;;7.70;49.30;;;;;;5051800;28;20195;-68
2021/03/23 02:44:22;;;;;;;3.43;2.00;;;7.70;49.10;;;;;;5051819;28;20069;-67
2021/03/23 02:46:48;;;;;;;5.33;2.50;;;7.80;48.80;;;;;;5051863;28;20033;-67
2021/03/23 02:49:15;;;;;;;7.33;2.23;;;7.70;48.80;;;;;;5051663;28;20405;-68
2021/03/23 02:51:41;;;;;;;4.30;2.30;;;7.70;49.20;;;;;;5051344;28;20094;-68
2021/03/23 02:54:12;;;;;;;5.03;2.13;;;7.70;49.50;;;;;;5051626;28;20069;-67
2021/03/23 02:56:38;;;;;;;7.70;2.17;;;7.60;49.70;;;;;;5049763;28;20413;-67
2021/03/23 02:59:03;;;;;;;7.13;2.63;;;7.60;49.80;;;;;;5051306;28;20163;-67
2021/03/23 03:01:29;;;;;;;4.83;2.17;;;7.60;49.80;;;;;;5051478;28;20116;-67
2021/03/23 03:03:54;;;;;;;5.27;2.10;;;7.60;49.80;;;;;;5051170;28;20025;-67
2021/03/23 03:06:20;;;;;;;5.30;2.27;;;7.60;49.40;;;;;;5051089;28;20043;-67
2021/03/23 03:08:46;;;;;;;4.90;2.43;;;7.70;49.20;;;;;;5051242;28;20032;-67
2021/03/23 03:11:11;;;;;;;6.47;2.50;;;7.70;49.30;;;;;;5051070;28;20060;-67
2021/03/23 03:13:37;;;;;;;5.43;1.90;;;7.70;49.20;;;;;;5051345;28;20032;-67
2021/03/23 03:16:03;;;;;;;8.00;2.10;;;7.60;49.10;;;;;;5051052;28;20064;-68
2021/03/23 03:18:29;;;;;;;3.40;2.00;;;7.70;49.10;;;;;;5051153;28;20473;-67
2021/03/23 03:20:57;;;;;;;6.10;2.33;;;7.70;49.20;;;;;;5051142;28;20123;-67
2021/03/23 03:23:22;;;;;;;5.80;2.33;;;7.60;49.40;;;;;;5051142;28;20059;-67
2021/03/23 03:25:52;;;;;;;5.57;2.30;;;7.60;49.40;;;;;;5051309;28;20025;-67
2021/03/23 03:28:18;;;;;;;4.13;1.97;;;7.60;49.40;;;;;;5051354;28;20029;-67
2021/03/23 03:30:45;;;;;;;3.73;1.80;;;7.60;49.40;;;;;;5051198;28;20491;-67
2021/03/23 03:33:13;;;;;;;7.00;2.10;;;7.50;49.30;;;;;;5050674;28;20074;-67
2021/03/23 03:35:41;;;;;;;4.30;1.97;;;7.50;49.40;;;;;;5050716;28;20103;-67
2021/03/23 03:38:08;;;;;;;4.73;2.30;;;7.40;49.40;;;;;;5051045;28;20470;-67
2021/03/23 03:40:44;;;;;;;5.70;2.50;;;7.40;49.40;;;;;;5051051;28;20052;-67
2021/03/23 03:43:11;;;;;;;3.73;1.90;;;7.40;49.20;;;;;;5050914;28;20056;-67
2021/03/23 03:45:37;;;;;;;4.33;2.00;;;7.40;49.30;;;;;;5050839;28;20033;-67
2021/03/23 03:48:03;;;;;;;4.37;2.23;;;7.30;49.70;;;;;;5051110;28;20108;-68
2021/03/23 03:50:30;;;;;;;5.20;2.03;;;7.30;49.90;;;;;;5051071;28;20029;-68
2021/03/23 03:52:57;;;;;;;3.50;1.97;;;7.30;49.80;;;;;;5052721;28;20025;-68
2021/03/23 03:55:26;;;;;;;5.10;2.07;;;7.20;49.80;;;;;;5052783;28;20037;-68
2021/03/23 03:57:52;;;;;;;5.37;2.20;;;7.30;49.80;;;;;;5052557;28;20461;-68
2021/03/23 04:00:21;;;;;;;6.57;2.00;;;7.30;49.60;;;;;;5052724;28;20088;-68
2021/03/23 04:02:47;;;;;;;4.57;2.17;;;7.20;49.40;;;;;;5052502;28;20424;-68
2021/03/23 04:05:38;;;;;;;5.13;2.20;;;7.20;49.60;;;;;;5053008;28;20028;-68
2021/03/23 04:08:06;;;;;;;5.23;2.23;;;7.20;49.70;;;;;;5047506;28;20052;-68
2021/03/23 04:10:32;;;;;;;4.97;1.80;;;7.20;50.00;;;;;;5056152;28;20035;-68
2021/03/23 04:12:57;;;;;;;8.67;2.00;;;7.20;49.50;;;;;;5056594;28;20113;-69
2021/03/23 04:15:32;;;;;;;6.73;1.67;;;7.20;49.30;;;;;;5056397;28;20057;-68
2021/03/23 04:17:58;;;;;;;5.70;1.73;;;7.20;49.50;;;;;;5056380;28;20037;-69
2021/03/23 04:20:25;;;;;;;5.63;1.77;;;7.20;49.60;;;;;;5056278;28;20025;-68
2021/03/23 04:22:51;;;;;;;9.47;2.17;;;7.20;49.90;;;;;;5056325;28;20506;-68
2021/03/23 04:25:20;;;;;;;5.57;2.13;;;7.10;50.00;;;;;;5056148;28;20032;-68
2021/03/23 04:27:46;;;;;;;8.73;2.03;;;7.10;49.90;;;;;;5055970;28;20028;-68
2021/03/23 04:30:13;;;;;;;5.77;2.70;;;7.10;49.70;;;;;;5055920;28;20017;-68
2021/03/23 04:32:39;;;;;;;5.57;2.20;;;7.00;49.70;;;;;;5056039;28;20052;-68
2021/03/23 04:35:08;;;;;;;7.00;2.17;;;7.10;50.80;;;;;;5056474;28;20053;-69
2021/03/23 04:37:33;;;;;;;5.17;2.13;;;7.00;50.30;;;;;;5056107;28;20501;-68
2021/03/23 04:40:03;;;;;;;4.17;2.00;;;7.00;50.40;;;;;;5055830;28;20060;-68
2021/03/23 04:42:29;;;;;;;5.07;2.20;;;7.00;50.50;;;;;;5055920;28;20489;-67
2021/03/23 04:44:54;;;;;;;3.50;1.70;;;7.00;50.70;;;;;;5055947;28;20032;-68
2021/03/23 04:47:20;;;;;;;5.97;2.20;;;6.90;50.30;;;;;;5056134;28;20598;-68
2021/03/23 04:49:46;;;;;;;4.40;2.50;;;6.90;50.90;;;;;;5056171;28;20025;-68
2021/03/23 04:52:12;;;;;;;3.73;2.40;;;6.90;51.40;;;;;;5056111;28;20040;-68
2021/03/23 04:54:37;;;;;;;8.10;2.33;;;6.80;52.30;;;;;;5055781;28;20102;-68
2021/03/23 04:57:03;;;;;;;12.60;4.77;;;6.80;52.30;;;;;;5055485;28;20492;-68
2021/03/23 04:59:29;;;;;;;6.77;4.80;;;6.80;52.20;;;;;;5055588;28;20088;-69
2021/03/23 05:01:55;;;;;;;9.53;3.77;;;6.70;52.00;;;;;;5055600;28;20047;-68
2021/03/23 05:04:20;;;;;;;7.20;3.53;;;6.70;52.20;;;;;;5055729;28;20024;-69
2021/03/23 05:06:46;;;;;;;5.90;3.03;;;6.70;52.00;;;;;;5055503;28;20504;-68
2021/03/23 05:09:12;;;;;;;5.67;3.13;;;6.70;52.20;;;;;;5055093;28;20033;-68
2021/03/23 05:11:38;;;;;;;7.33;3.63;;;6.60;52.20;;;;;;5055591;28;20025;-68
2021/03/23 05:14:06;;;;;;;5.63;3.00;;;6.60;52.50;;;;;;5055264;28;20496;-68
2021/03/23 05:16:32;;;;;;;8.07;3.23;;;6.60;52.50;;;;;;5055269;28;20045;-68
2021/03/23 05:18:58;;;;;;;5.30;2.73;;;6.60;52.70;;;;;;5054989;28;20029;-68
2021/03/23 05:21:24;;;;;;;8.03;3.03;;;6.60;52.60;;;;;;5054896;28;20091;-69
2021/03/23 05:23:54;;;;;;;7.60;2.90;;;6.60;52.40;;;;;;5055151;28;20074;-69
2021/03/23 05:26:20;;;;;;;9.67;2.83;;;6.60;53.20;;;;;;5055271;28;20033;-69
2021/03/23 05:28:47;;;;;;;6.33;2.97;;;6.50;52.10;;;;;;5054929;28;20452;-68
2021/03/23 05:31:14;;;;;;;6.70;2.90;;;6.50;52.60;;;;;;5054684;28;20494;-68
2021/03/23 05:33:40;;;;;;;5.47;2.90;;;6.50;52.30;;;;;;5054681;28;20534;-68
2021/03/23 05:36:06;;;;;;;8.27;2.93;;;6.50;52.40;;;;;;5054825;28;20112;-67
2021/03/23 05:38:31;;;;;;;8.23;3.23;;;6.50;52.20;;;;;;5054605;28;20112;-67
2021/03/23 05:41:24;;;;;;;10.17;3.57;;;6.50;51.90;;;;;;5054923;28;20025;-68
2021/03/23 05:44:09;;;;;;;8.98;3.40;;;6.50;52.20;;;;;;5054720;28;20039;-68
2021/03/23 05:46:38;;;;;;;7.43;3.67;;;6.50;52.50;;;;;;5054608;28;20025;-67
2021/03/23 05:49:10;;;;;;;8.30;3.63;;;6.50;52.30;;;;;;5054422;28;20025;-69
2021/03/23 05:51:48;;;;;;;10.50;3.60;;;6.60;52.10;;;;;;5053313;28;20045;-67
2021/03/23 05:54:14;;;;;;;11.43;3.87;;;6.60;51.70;;;;;;5054690;28;20028;-68
2021/03/23 05:56:41;;;;;;;7.13;3.80;;;6.50;51.80;;;;;;5054578;28;20478;-68
2021/03/23 05:59:17;;;;;;;8.50;3.43;;;6.60;52.10;;;;;;5054561;28;20056;-68
2021/03/23 06:01:53;;;;;;;10.33;3.40;;;6.60;52.50;;;;;;5054545;28;20021;-68
2021/03/23 06:04:26;;;;;;;13.70;3.47;;;6.60;52.50;;;;;;5054722;28;20032;-68
2021/03/23 06:07:10;;;;;;;10.50;3.33;;;6.60;51.90;;;;;;5054483;28;20070;-68
2021/03/23 06:09:38;;;;;;;7.03;3.20;;;6.70;52.30;;;;;;5054202;28;20028;-68
2021/03/23 06:12:07;;;;;;;17.87;3.80;;;6.70;52.30;;;;;;5053942;28;20377;-68
2021/03/23 06:14:43;;;;;;;9.63;3.03;;;6.70;52.20;;;;;;5054224;28;20104;-68
2021/03/23 06:17:15;;;;;;;7.67;2.97;;;6.70;52.00;;;;;;5054078;28;20043;-68
2021/03/23 06:20:02;;;;;;;12.82;2.85;;;6.80;51.90;;;;;;5054010;28;20014;-68
2021/03/23 06:22:52;;;;;;;6.73;3.10;;;6.80;51.60;;;;;;5054173;28;20029;-68
2021/03/23 06:25:38;;;;;;;9.77;3.53;;;6.80;51.70;;;;;;5053972;28;20462;-69
2021/03/23 06:28:31;;;;;;;8.87;3.20;;;6.90;51.50;;;;;;5053781;28;20355;-68
2021/03/23 06:31:20;;;;;;;7.80;2.77;;;6.90;51.80;;;;;;5053643;28;20078;-68
2021/03/23 06:33:46;;;;;;;7.67;3.17;;;6.90;51.60;;;;;;5052670;28;20440;-68
2021/03/23 06:36:25;;;;;;;8.13;3.17;;;6.90;51.30;;;;;;5053682;28;20032;-68
2021/03/23 06:38:50;;;;;;;14.43;3.40;;;7.00;51.60;;;;;;5053415;28;20032;-68
2021/03/23 06:41:16;;;;;;;13.13;3.03;;;7.00;51.60;;;;;;5053414;28;20032;-68
2021/03/23 06:43:45;;;;;;;10.97;3.33;;;7.10;51.90;;;;;;5054518;28;20060;-68
2021/03/23 06:46:22;;;;;;;7.40;2.97;;;7.10;51.10;;;;;;5053172;28;20029;-68
2021/03/23 06:49:14;;;;;;;6.50;2.97;;;7.10;51.10;;;;;;5053188;28;20078;-68
2021/03/23 06:52:02;;;;;;;8.43;3.17;;;7.20;51.30;;;;;;5047557;28;20037;-68
2021/03/23 06:54:32;;;;;;;11.87;3.00;;;7.30;51.40;;;;;;5052990;28;20025;-68
2021/03/23 06:57:13;;;;;;;9.37;2.20;;;7.30;51.00;;;;;;5053116;28;20075;-67
2021/03/23 06:59:57;;;;;;;7.70;2.50;;;7.30;50.50;;;;;;5053104;28;20672;-68
2021/03/23 07:02:47;;;;;;;5.27;2.60;;;7.40;50.40;;;;;;5052556;28;20033;-68
2021/03/23 07:05:16;;;;;;;6.97;2.70;;;7.40;50.10;;;;;;5052086;28;20044;-68
2021/03/23 07:07:58;;;;;;;5.67;2.70;;;7.50;50.00;;;;;;5052894;28;20112;-68
2021/03/23 07:10:33;;;;;;;4.47;2.30;;;7.50;49.90;;;;;;5053350;28;20040;-68
2021/03/23 07:13:00;;;;;;;9.93;2.37;;;7.60;49.40;;;;;;5053110;28;20476;-68
2021/03/23 07:15:29;;;;;;;11.13;2.80;;;7.60;49.20;;;;;;5052840;28;20061;-68
2021/03/23 07:17:57;;;;;;;5.17;2.50;;;7.70;49.20;;;;;;5052960;28;20095;-69
2021/03/23 07:20:29;;;;;;;9.80;3.13;;;7.70;48.50;;;;;;5052855;28;20375;-68
2021/03/23 07:22:55;;;;;;;5.47;2.73;;;7.80;48.70;;;;;;5053046;28;20112;-68
2021/03/23 07:25:40;;;;;;;8.67;2.50;;;7.90;48.70;;;;;;5051058;28;20036;-68
2021/03/23 07:28:28;;;;;;;6.40;2.50;;;7.90;48.70;;;;;;5049946;28;20021;-68
2021/03/23 07:31:02;;;;;;;5.33;2.30;;;8.00;49.70;;;;;;5050678;28;20017;-68
2021/03/23 07:33:50;;;;;;;7.60;2.93;;;8.10;48.60;;;;;;5052328;28;20488;-70
2021/03/23 07:36:22;;;;;;;7.27;2.30;;;8.20;48.10;;;;;;5052615;28;20025;-69
2021/03/23 07:39:03;;;;;;;46.13;4.60;;;8.20;47.80;;;;;;5052353;28;20478;-69
2021/03/23 07:41:43;;;;;;;19.77;3.33;;;8.30;48.20;;;;;;5051901;28;20022;-71
2021/03/23 07:44:23;;;;;;;12.47;2.87;;;8.40;47.70;;;;;;5053020;28;20024;-70
2021/03/23 07:46:58;;;;;;;19.10;3.27;;;8.40;47.40;;;;;;5054107;28;20037;-72
2021/03/23 07:49:44;;;;;;;10.03;3.20;;;8.50;47.80;;;;;;5053249;28;20483;-71
2021/03/23 07:52:31;;;;;;;6.43;2.60;;;8.50;48.40;;;;;;5056414;28;20052;-76
2021/03/23 07:55:00;;;;;;;5.07;2.43;;;8.70;48.60;;;;;;5056906;28;20504;-72
2021/03/23 07:58:01;;;;;;;8.70;2.73;;;8.70;48.00;;;;;;5056400;28;20037;-77
2021/03/23 08:00:53;;;;;;;5.73;2.50;;;8.70;48.70;;;;;;5040205;28;20033;-70
2021/03/23 08:03:34;;;;;;;5.60;2.65;;;8.80;48.90;;;;;;5056157;28;20103;-72
2021/03/23 08:06:14;;;;;;;6.83;3.20;;;8.90;49.10;;;;;;5056650;28;20021;-72
2021/03/23 08:08:40;;;;;;;5.17;2.37;;;9.00;49.60;;;;;;5056297;28;20074;-71
2021/03/23 08:11:14;;;;;;;4.97;2.07;;;9.00;49.50;;;;;;5055519;28;20104;-72
2021/03/23 08:13:49;;;;;;;7.77;2.47;;;9.10;49.20;;;;;;5054611;28;20166;-73
2021/03/23 08:16:17;;;;;;;10.87;2.03;;;9.20;49.00;;;;;;5055641;28;20540;-72
2021/03/23 08:19:02;;;;;;;8.77;2.70;;;9.30;49.00;;;;;;5054031;28;20029;-73
2021/03/23 08:21:39;;;;;;;5.93;2.70;;;9.30;49.10;;;;;;5053855;28;20025;-72
2021/03/23 08:24:22;;;;;;;6.33;2.57;;;9.40;48.50;;;;;;5053679;28;20381;-72
2021/03/23 08:26:57;;;;;;;6.87;2.43;;;9.50;48.40;;;;;;5055441;28;20032;-72
2021/03/23 08:29:49;;;;;;;5.70;2.40;;;9.50;47.90;;;;;;5055502;28;20067;-76
2021/03/23 08:32:21;;;;;;;8.70;2.90;;;9.50;48.10;;;;;;5055101;28;20052;-71
2021/03/23 08:35:13;;;;;;;4.43;2.20;;;9.50;48.60;;;;;;5055206;28;20025;-72
2021/03/23 08:38:08;;;;;;;5.67;2.63;;;9.60;48.20;;;;;;5053968;28;20040;-76
2021/03/23 08:40:43;;;;;;;9.00;2.40;;;9.70;47.90;;;;;;5050635;28;20055;-71
2021/03/23 08:43:14;;;;;;;4.93;2.13;;;9.70;47.60;;;;;;5055885;28;20029;-72
2021/03/23 08:45:49;;;;;;;9.17;2.60;;;9.80;47.90;;;;;;5055593;28;20124;-71
2021/03/23 08:48:34;;;;;;;12.03;2.43;;;9.90;47.60;;;;;;5055637;28;20485;-71
2021/03/23 08:51:04;;;;;;;4.67;2.13;;;10.00;47.40;;;;;;5055715;28;20023;-71
2021/03/23 08:53:34;;;;;;;9.07;2.63;;;10.00;46.90;;;;;;5055529;28;20029;-77
2021/03/23 08:56:01;;;;;;;9.73;2.87;;;10.10;47.20;;;;;;5055091;28;20100;-72
2021/03/23 08:58:52;;;;;;;10.20;2.83;;;10.20;47.20;;;;;;5055428;28;20033;-73
2021/03/23 09:01:41;;;;;;;7.20;2.70;;;10.30;47.60;;;;;;5055387;28;20374;-76
2021/03/23 09:04:09;;;;;;;5.33;3.07;;;10.40;46.80;;;;;;5055477;28;20028;-73
2021/03/23 09:06:49;;;;;;;5.17;2.27;;;10.50;46.20;;;;;;5055500;28;20035;-72
2021/03/23 09:09:40;;;;;;;5.20;2.40;;;10.60;47.60;;;;;;5055200;28;20462;-71
2021/03/23 09:12:44;;;;;;;8.83;2.70;;;10.70;45.10;;;;;;5054839;28;20485;-72
2021/03/23 09:15:17;;;;;;;7.30;2.70;;;10.80;44.90;;;;;;5055029;28;20029;-72
2021/03/23 09:18:24;;;;;;;4.85;2.13;;;10.80;44.70;;;;;;5054948;28;20473;-72
2021/03/23 09:20:50;;;;;;;5.07;2.17;;;10.90;45.40;;;;;;5054800;28;20021;-71
2021/03/23 09:23:16;;;;;;;6.90;2.83;;;11.00;44.60;;;;;;5055271;28;20110;-72
2021/03/23 09:26:03;;;;;;;7.87;2.53;;;11.00;43.90;;;;;;5055193;28;20167;-73
2021/03/23 09:28:29;;;;;;;5.82;2.50;;;11.00;44.50;;;;;;5054792;28;20025;-73
2021/03/23 09:31:15;;;;;;;4.23;2.10;;;11.10;44.90;;;;;;5054703;28;20035;-72
2021/03/23 09:33:49;;;;;;;5.00;2.57;;;11.20;42.60;;;;;;5054762;28;20063;-76
2021/03/23 09:36:20;;;;;;;6.53;2.60;;;11.30;43.30;;;;;;5054683;28;20028;-72
2021/03/23 09:39:19;;;;;;;5.90;2.65;;;11.40;44.50;;;;;;5054807;28;20527;-76
2021/03/23 09:41:51;;;;;;;4.85;2.42;;;11.50;45.30;;;;;;5039087;28;20037;-74
2021/03/23 09:44:16;;;;;;;7.30;2.90;;;11.60;43.90;;;;;;5054721;28;20424;-72
2021/03/23 09:46:54;;;;;;;5.32;2.90;;;11.70;43.90;;;;;;5054615;28;20271;-76
2021/03/23 09:49:27;;;;;;;6.38;3.50;;;11.80;43.80;;;;;;5054849;28;20385;-70
2021/03/23 09:52:02;;;;;;;12.73;3.65;;;11.90;44.90;;;;;;5054525;28;20029;-72
2021/03/23 09:54:38;;;;;;;9.50;3.05;;;12.00;44.30;;;;;;5054188;28;20059;-72
2021/03/23 09:57:11;;;;;;;7.25;3.08;;;12.10;44.20;;;;;;5054178;28;20029;-72
2021/03/23 09:59:44;;;;;;;9.43;3.55;;;12.20;44.10;;;;;;5054342;28;20017;-72
2021/03/23 10:02:28;;;;;;;6.97;3.10;;;12.30;43.60;;;;;;5053798;28;20429;-72
2021/03/23 10:04:54;;;;;;;6.22;3.08;;;12.40;42.20;;;;;;5040324;28;20053;-72
2021/03/23 10:07:38;;;;;;;3.80;2.22;;;12.40;42.60;;;;;;5052135;28;20054;-72
2021/03/23 10:10:28;;;;;;;5.95;2.58;;;12.50;40.30;;;;;;5053811;28;20017;-72
2021/03/23 10:12:56;;;;;;;6.65;2.80;;;12.60;41.90;;;;;;5053839;28;20028;-72
2021/03/23 10:15:33;;;;;;;6.20;2.60;;;12.70;42.60;;;;;;5054227;28;20036;-73
2021/03/23 10:18:14;;;;;;;4.32;2.00;;;12.80;42.50;;;;;;5053813;28;20029;-72
2021/03/23 10:20:39;;;;;;;7.93;2.40;;;12.90;41.10;;;;;;5053832;28;20021;-74
2021/03/23 10:23:06;;;;;;;3.63;2.28;;;13.00;38.20;;;;;;5049038;28;20160;-72
2021/03/23 10:25:32;;;;;;;5.40;2.20;;;13.10;39.30;;;;;;5033938;28;20421;-72
2021/03/23 10:28:03;;;;;;;4.28;1.90;;;13.20;39.20;;;;;;5033631;28;20021;-73
2021/03/23 10:30:37;;;;;;;4.68;2.30;;;13.30;38.20;;;;;;5033646;28;20048;-72
2021/03/23 10:33:22;;;;;;;5.55;1.90;;;13.50;38.70;;;;;;5033512;28;20052;-72
2021/03/23 10:35:47;;;;;;;4.30;2.72;;;13.60;38.00;;;;;;5033646;28;20052;-72
2021/03/23 10:38:16;;;;;;;2.90;1.88;;;13.70;38.10;;;;;;5044503;28;20478;-73
2021/03/23 10:40:53;;;;;;;5.38;2.00;;;13.80;37.30;;;;;;5041447;28;20103;-73
2021/03/23 10:43:37;;;;;;;3.95;1.83;;;13.90;37.20;;;;;;5053120;28;20044;-73
2021/03/23 10:46:24;;;;;;;5.20;2.10;;;14.00;37.10;;;;;;5053546;28;20079;-73
2021/03/23 10:48:50;;;;;;;6.65;1.48;;;14.10;36.30;;;;;;5053071;28;20029;-74
2021/03/23 10:51:20;;;;;;;7.18;2.88;;;14.30;35.60;;;;;;5052148;28;20048;-73
2021/03/23 10:54:09;;;;;;;7.07;2.60;;;14.30;34.80;;;;;;5051342;28;20043;-74
2021/03/23 10:56:36;;;;;;;5.60;2.70;;;14.40;36.00;;;;;;5052108;28;20024;-73
2021/03/23 10:59:12;;;;;;;4.78;2.30;;;14.40;35.70;;;;;;5052464;28;20116;-73
2021/03/23 11:01:58;;;;;;;8.77;3.17;;;14.50;35.70;;;;;;5052828;28;20381;-73
2021/03/23 11:04:24;;;;;;;13.77;3.45;;;14.50;37.50;;;;;;5052803;28;20025;-73
2021/03/23 11:06:50;;;;;;;7.30;3.22;;;14.60;36.50;;;;;;5052803;28;20119;-73
2021/03/23 11:09:17;;;;;;;8.65;3.17;;;14.60;37.00;;;;;;5052885;28;20362;-74
2021/03/23 11:11:44;;;;;;;6.93;2.97;;;14.60;36.70;;;;;;5053081;28;20029;-73
2021/03/23 11:14:10;;;;;;;6.05;2.72;;;14.60;36.20;;;;;;5052204;28;20025;-73
2021/03/23 11:16:58;;;;;;;4.85;2.75;;;14.60;37.00;;;;;;5052821;28;20029;-73
2021/03/23 11:19:30;;;;;;;6.13;3.00;;;14.60;35.20;;;;;;5052706;28;20023;-74
2021/03/23 11:21:58;;;;;;;7.73;2.90;;;14.60;36.30;;;;;;5051946;28;20067;-74
2021/03/23 11:24:26;;;;;;;5.03;2.67;;;14.60;35.10;;;;;;5052457;28;20691;-72
2021/03/23 11:26:52;;;;;;;12.55;2.40;;;14.70;34.40;;;;;;5050225;28;20465;-73
2021/03/23 11:29:19;;;;;;;7.82;2.95;;;14.80;35.40;;;;;;5052215;28;20079;-74
2021/03/23 11:31:45;;;;;;;5.70;2.20;;;14.80;34.90;;;;;;5052139;28;20119;-74
2021/03/23 11:34:10;;;;;;;5.90;2.72;;;14.80;34.10;;;;;;5049224;28;20035;-73
2021/03/23 11:36:36;;;;;;;4.40;2.45;;;14.90;35.10;;;;;;5050429;28;20040;-74
2021/03/23 11:39:04;;;;;;;5.90;2.40;;;15.00;35.40;;;;;;5050323;28;20075;-74
2021/03/23 11:41:35;;;;;;;4.28;2.40;;;15.10;35.50;;;;;;5051636;28;20017;-73
2021/03/23 11:44:07;;;;;;;6.55;2.47;;;15.10;35.10;;;;;;5051470;28;20077;-73
2021/03/23 11:46:57;;;;;;;8.23;2.80;;;15.10;35.10;;;;;;5050480;28;20083;-73
2021/03/23 11:49:45;;;;;;;4.35;2.40;;;15.20;33.20;;;;;;5052427;28;20161;-72
2021/03/23 11:52:11;;;;;;;5.43;2.30;;;15.10;34.70;;;;;;5051563;28;20017;-73
2021/03/23 11:54:37;;;;;;;5.15;2.40;;;15.10;34.20;;;;;;5052497;28;20021;-73
2021/03/23 11:57:04;;;;;;;5.43;2.60;;;15.20;32.00;;;;;;5051609;28;20029;-72
2021/03/23 11:59:30;;;;;;;5.13;2.55;;;15.30;32.20;;;;;;5052307;28;20378;-73
2021/03/23 12:01:56;;;;;;;4.80;2.53;;;15.30;33.10;;;;;;5052680;28;20025;-73
2021/03/23 12:04:22;;;;;;;7.70;2.38;;;15.40;32.70;;;;;;5051219;28;20014;-74
2021/03/23 12:06:56;;;;;;;9.18;2.50;;;15.60;31.90;;;;;;5051303;28;20025;-73
2021/03/23 12:09:50;;;;;;;4.72;2.33;;;15.60;30.80;;;;;;5050179;28;20036;-73
2021/03/23 12:12:57;;;;;;;5.00;2.10;;;15.70;31.90;;;;;;5051129;28;20037;-73
2021/03/23 12:15:25;;;;;;;4.65;2.35;;;15.70;32.00;;;;;;5049803;28;20121;-74
2021/03/23 12:17:55;;;;;;;7.40;1.98;;;15.80;31.70;;;;;;5051443;28;20116;-73
2021/03/23 12:20:29;;;;;;;5.68;1.95;;;15.90;30.30;;;;;;5051723;28;20090;-76
2021/03/23 12:22:55;;;;;;;6.30;2.10;;;15.90;29.90;;;;;;5050199;28;20053;-76
2021/03/23 12:25:23;;;;;;;4.00;1.80;;;15.90;30.30;;;;;;5051823;28;20064;-75
2021/03/23 12:27:50;;;;;;;6.20;1.92;;;15.90;30.50;;;;;;5052197;28;20028;-74
2021/03/23 12:30:16;;;;;;;4.60;2.33;;;16.00;30.50;;;;;;5052974;28;20473;-76
2021/03/23 12:32:42;;;;;;;2.90;1.55;;;16.10;30.30;;;;;;5056452;28;20053;-74
2021/03/23 12:35:17;;;;;;;5.20;1.67;;;16.20;30.00;;;;;;5055935;28;20032;-77
2021/03/23 12:37:43;;;;;;;3.80;1.70;;;16.20;31.70;;;;;;5055991;28;20493;-74
2021/03/23 12:40:12;;;;;;;5.32;1.70;;;16.30;29.90;;;;;;5055760;28;20798;-73
2021/03/23 12:42:38;;;;;;;5.25;1.80;;;16.30;28.80;;;;;;5055686;28;20032;-72
2021/03/23 12:45:07;;;;;;;5.82;1.80;;;16.10;29.20;;;;;;5055779;28;20486;-71
2021/03/23 12:47:34;;;;;;;3.30;1.85;;;16.10;29.90;;;;;;5055629;28;20029;-70
2021/03/23 12:50:00;;;;;;;2.88;1.80;;;16.10;30.00;;;;;;5055620;28;20025;-70
2021/03/23 12:52:25;;;;;;;7.47;1.70;;;16.00;29.20;;;;;;5055769;28;20025;-71
2021/03/23 12:54:55;;;;;;;2.85;1.50;;;15.90;30.20;;;;;;5055525;28;20021;-72
2021/03/23 12:57:24;;;;;;;3.53;1.48;;;15.90;29.30;;;;;;5055485;28;20037;-71
2021/03/23 12:59:53;;;;;;;3.65;1.25;;;15.90;29.20;;;;;;5055358;28;20025;-71
2021/03/23 13:02:22;;;;;;;4.18;1.60;;;15.80;28.70;;;;;;5055115;28;20021;-71
2021/03/23 13:04:47;;;;;;;3.25;1.60;;;15.70;29.10;;;;;;5055366;28;20017;-71
2021/03/23 13:07:37;;;;;;;3.97;1.50;;;15.60;28.70;;;;;;5055179;28;20377;-71
2021/03/23 13:10:07;;;;;;;3.45;1.50;;;15.50;29.20;;;;;;5055254;28;20060;-72
2021/03/23 13:12:33;;;;;;;3.58;1.40;;;15.50;30.00;;;;;;5054884;28;20025;-71
2021/03/23 13:14:59;;;;;;;3.28;1.40;;;15.40;29.60;;;;;;5055354;28;20095;-71
2021/03/23 13:17:25;;;;;;;8.13;2.50;;;15.30;28.80;;;;;;5055300;28;20040;-72